sensor_id;sensor_type;location;lat;lon;timestamp;pressure;altitude;pressure_sealevel;temperature;humidity
9249;BME280;4660;41.768;26.198;2023-04-27T00:01:11;100214.41;;;12.12;100.00
9249;BME280;4660;41.768;26.198;2023-04-27T00:03:37;100213.72;;;12.10;100.00
9249;BME280;4660;41.768;26.198;2023-04-27T00:06:03;100215.69;;;12.00;100.00
9249;BME280;4660;41.768;26.198;2023-04-27T00:08:29;100214.81;;;11.91;100.00
9249;BME280;4660;41.768;26.198;2023-04-27T00:10:58;100202.50;;;11.80;100.00
9249;BME280;4660;41.768;26.198;2023-04-27T00:13:24;100209.56;;;11.81;100.00
9249;BME280;4660;41.768;26.198;2023-04-27T00:15:49;100210.59;;;11.80;100.00
9249;BME280;4660;41.768;26.198;2023-04-27T00:18:15;100224.75;;;11.91;100.00
9249;BME280;4660;41.768;26.198;2023-04-27T00:20:41;100218.94;;;11.77;100.00
9249;BME280;4660;41.768;26.198;2023-04-27T00:23:07;100223.72;;;11.83;100.00
9249;BME280;4660;41.768;26.198;2023-04-27T00:25:32;100221.41;;;11.89;100.00
9249;BME280;4660;41.768;26.198;2023-04-27T00:27:58;100223.56;;;11.85;100.00
9249;BME280;4660;41.768;26.198;2023-04-27T00:30:23;100222.81;;;11.75;100.00
9249;BME280;4660;41.768;26.198;2023-04-27T00:32:49;100223.78;;;11.66;100.00
9249;BME280;4660;41.768;26.198;2023-04-27T00:35:15;100226.88;;;11.79;100.00
9249;BME280;4660;41.768;26.198;2023-04-27T00:37:41;100213.88;;;11.74;100.00
9249;BME280;4660;41.768;26.198;2023-04-27T00:40:06;100228.38;;;11.73;100.00
9249;BME280;4660;41.768;26.198;2023-04-27T00:42:33;100222.88;;;11.57;100.00
9249;BME280;4660;41.768;26.198;2023-04-27T00:44:59;100210.56;;;11.54;100.00
9249;BME280;4660;41.768;26.198;2023-04-27T00:47:25;100229.31;;;11.64;100.00
9249;BME280;4660;41.768;26.198;2023-04-27T00:49:51;100229.69;;;11.69;100.00
9249;BME280;4660;41.768;26.198;2023-04-27T00:52:17;100231.50;;;11.61;100.00
9249;BME280;4660;41.768;26.198;2023-04-27T00:54:43;100237.72;;;11.61;100.00
9249;BME280;4660;41.768;26.198;2023-04-27T00:57:09;100218.16;;;11.51;100.00
9249;BME280;4660;41.768;26.198;2023-04-27T00:59:34;100226.09;;;11.61;100.00
9249;BME280;4660;41.768;26.198;2023-04-27T01:02:00;100256.78;;;11.68;100.00
9249;BME280;4660;41.768;26.198;2023-04-27T01:04:27;100254.25;;;11.66;100.00
9249;BME280;4660;41.768;26.198;2023-04-27T01:06:53;100269.38;;;11.59;100.00
9249;BME280;4660;41.768;26.198;2023-04-27T01:09:19;100255.88;;;11.51;100.00
9249;BME280;4660;41.768;26.198;2023-04-27T01:11:45;100258.56;;;11.51;100.00
9249;BME280;4660;41.768;26.198;2023-04-27T01:14:11;100258.19;;;11.46;100.00
9249;BME280;4660;41.768;26.198;2023-04-27T01:16:37;100268.41;;;11.42;100.00
9249;BME280;4660;41.768;26.198;2023-04-27T01:19:03;100255.16;;;11.23;100.00
9249;BME280;4660;41.768;26.198;2023-04-27T01:21:29;100270.53;;;11.30;100.00
9249;BME280;4660;41.768;26.198;2023-04-27T01:23:55;100254.31;;;11.22;100.00
9249;BME280;4660;41.768;26.198;2023-04-27T01:26:21;100283.72;;;11.42;100.00
9249;BME280;4660;41.768;26.198;2023-04-27T01:28:47;100287.41;;;11.41;100.00
9249;BME280;4660;41.768;26.198;2023-04-27T01:31:13;100283.88;;;11.40;100.00
9249;BME280;4660;41.768;26.198;2023-04-27T01:33:40;100290.78;;;11.43;100.00
9249;BME280;4660;41.768;26.198;2023-04-27T01:36:07;100296.72;;;11.46;100.00
9249;BME280;4660;41.768;26.198;2023-04-27T01:38:33;100294.41;;;11.51;100.00
9249;BME280;4660;41.768;26.198;2023-04-27T01:40:59;100302.97;;;11.47;100.00
9249;BME280;4660;41.768;26.198;2023-04-27T01:43:28;100307.50;;;11.46;100.00
9249;BME280;4660;41.768;26.198;2023-04-27T01:45:54;100307.06;;;11.33;100.00
9249;BME280;4660;41.768;26.198;2023-04-27T01:48:19;100306.28;;;11.41;100.00
9249;BME280;4660;41.768;26.198;2023-04-27T01:50:45;100317.91;;;11.41;100.00
9249;BME280;4660;41.768;26.198;2023-04-27T01:53:11;100323.66;;;11.46;100.00
9249;BME280;4660;41.768;26.198;2023-04-27T01:55:36;100306.34;;;11.49;100.00
9249;BME280;4660;41.768;26.198;2023-04-27T01:58:02;100316.44;;;11.47;100.00
9249;BME280;4660;41.768;26.198;2023-04-27T02:00:27;100325.81;;;11.43;100.00
9249;BME280;4660;41.768;26.198;2023-04-27T02:02:53;100324.13;;;11.42;100.00
9249;BME280;4660;41.768;26.198;2023-04-27T02:05:22;100338.59;;;11.41;100.00
9249;BME280;4660;41.768;26.198;2023-04-27T02:07:48;100339.44;;;11.41;100.00
9249;BME280;4660;41.768;26.198;2023-04-27T02:10:14;100343.19;;;11.48;100.00
9249;BME280;4660;41.768;26.198;2023-04-27T02:12:40;100349.75;;;11.46;100.00
9249;BME280;4660;41.768;26.198;2023-04-27T02:15:06;100351.78;;;11.44;100.00
9249;BME280;4660;41.768;26.198;2023-04-27T02:17:35;100340.53;;;11.30;100.00
9249;BME280;4660;41.768;26.198;2023-04-27T02:20:00;100361.47;;;11.37;100.00
9249;BME280;4660;41.768;26.198;2023-04-27T02:22:26;100359.69;;;11.45;100.00
9249;BME280;4660;41.768;26.198;2023-04-27T02:24:51;100379.69;;;11.43;100.00
9249;BME280;4660;41.768;26.198;2023-04-27T02:27:17;100375.41;;;11.32;100.00
9249;BME280;4660;41.768;26.198;2023-04-27T02:29:43;100367.47;;;11.30;100.00
9249;BME280;4660;41.768;26.198;2023-04-27T02:32:08;100385.00;;;11.35;100.00
9249;BME280;4660;41.768;26.198;2023-04-27T02:34:34;100385.94;;;11.25;100.00
9249;BME280;4660;41.768;26.198;2023-04-27T02:36:59;100392.09;;;11.18;100.00
9249;BME280;4660;41.768;26.198;2023-04-27T02:39:25;100376.69;;;11.10;100.00
9249;BME280;4660;41.768;26.198;2023-04-27T02:41:51;100378.22;;;10.95;100.00
9249;BME280;4660;41.768;26.198;2023-04-27T02:44:16;100389.69;;;10.97;100.00
9249;BME280;4660;41.768;26.198;2023-04-27T02:46:42;100390.28;;;10.91;100.00
9249;BME280;4660;41.768;26.198;2023-04-27T02:49:07;100397.84;;;11.05;100.00
9249;BME280;4660;41.768;26.198;2023-04-27T02:51:33;100406.72;;;11.15;100.00
9249;BME280;4660;41.768;26.198;2023-04-27T02:53:58;100406.75;;;11.06;100.00
9249;BME280;4660;41.768;26.198;2023-04-27T02:56:24;100413.88;;;10.79;100.00
9249;BME280;4660;41.768;26.198;2023-04-27T02:58:50;100411.03;;;10.53;100.00
9249;BME280;4660;41.768;26.198;2023-04-27T03:01:15;100427.16;;;10.53;100.00
9249;BME280;4660;41.768;26.198;2023-04-27T03:03:44;100424.91;;;10.58;100.00
9249;BME280;4660;41.768;26.198;2023-04-27T03:06:10;100421.44;;;10.38;100.00
9249;BME280;4660;41.768;26.198;2023-04-27T03:08:36;100419.47;;;10.31;100.00
9249;BME280;4660;41.768;26.198;2023-04-27T03:11:01;100436.72;;;10.28;100.00
9249;BME280;4660;41.768;26.198;2023-04-27T03:13:27;100428.41;;;10.22;100.00
9249;BME280;4660;41.768;26.198;2023-04-27T03:15:52;100454.13;;;10.34;100.00
9249;BME280;4660;41.768;26.198;2023-04-27T03:18:18;100449.34;;;10.18;100.00
9249;BME280;4660;41.768;26.198;2023-04-27T03:20:44;100453.75;;;10.29;100.00
9249;BME280;4660;41.768;26.198;2023-04-27T03:23:09;100454.44;;;10.31;100.00
9249;BME280;4660;41.768;26.198;2023-04-27T03:25:36;100466.16;;;10.20;100.00
9249;BME280;4660;41.768;26.198;2023-04-27T03:28:01;100455.28;;;10.22;100.00
9249;BME280;4660;41.768;26.198;2023-04-27T03:30:27;100468.56;;;10.33;100.00
9249;BME280;4660;41.768;26.198;2023-04-27T03:32:52;100479.44;;;10.41;100.00
9249;BME280;4660;41.768;26.198;2023-04-27T03:35:18;100489.19;;;10.42;100.00
9249;BME280;4660;41.768;26.198;2023-04-27T03:37:44;100489.81;;;10.36;100.00
9249;BME280;4660;41.768;26.198;2023-04-27T03:40:11;100485.81;;;10.40;100.00
9249;BME280;4660;41.768;26.198;2023-04-27T03:42:36;100487.66;;;10.39;100.00
9249;BME280;4660;41.768;26.198;2023-04-27T03:45:02;100484.81;;;10.41;100.00
9249;BME280;4660;41.768;26.198;2023-04-27T03:47:29;100507.56;;;10.56;100.00
9249;BME280;4660;41.768;26.198;2023-04-27T03:49:55;100494.72;;;10.40;100.00
9249;BME280;4660;41.768;26.198;2023-04-27T03:52:21;100503.25;;;10.26;100.00
9249;BME280;4660;41.768;26.198;2023-04-27T03:54:47;100510.47;;;10.26;100.00
9249;BME280;4660;41.768;26.198;2023-04-27T03:57:12;100517.28;;;10.30;100.00
9249;BME280;4660;41.768;26.198;2023-04-27T03:59:37;100521.22;;;10.26;100.00
9249;BME280;4660;41.768;26.198;2023-04-27T04:02:03;100518.69;;;10.24;100.00
9249;BME280;4660;41.768;26.198;2023-04-27T04:04:30;100524.59;;;10.18;100.00
9249;BME280;4660;41.768;26.198;2023-04-27T04:06:56;100535.66;;;10.15;100.00
9249;BME280;4660;41.768;26.198;2023-04-27T04:09:21;100529.69;;;10.21;100.00
9249;BME280;4660;41.768;26.198;2023-04-27T04:11:47;100552.06;;;10.22;100.00
9249;BME280;4660;41.768;26.198;2023-04-27T04:14:13;100554.47;;;10.25;100.00
9249;BME280;4660;41.768;26.198;2023-04-27T04:16:38;100532.13;;;10.24;100.00
9249;BME280;4660;41.768;26.198;2023-04-27T04:19:04;100541.31;;;10.22;100.00
9249;BME280;4660;41.768;26.198;2023-04-27T04:21:29;100537.91;;;10.10;100.00
9249;BME280;4660;41.768;26.198;2023-04-27T04:23:56;100576.84;;;10.25;100.00
9249;BME280;4660;41.768;26.198;2023-04-27T04:26:21;100564.81;;;10.00;100.00
9249;BME280;4660;41.768;26.198;2023-04-27T04:28:49;100591.69;;;10.00;100.00
9249;BME280;4660;41.768;26.198;2023-04-27T04:31:17;100585.16;;;10.03;100.00
9249;BME280;4660;41.768;26.198;2023-04-27T04:33:42;100584.88;;;9.86;100.00
9249;BME280;4660;41.768;26.198;2023-04-27T04:36:08;100593.22;;;10.03;100.00
9249;BME280;4660;41.768;26.198;2023-04-27T04:38:35;100592.53;;;10.01;100.00
9249;BME280;4660;41.768;26.198;2023-04-27T04:41:01;100596.03;;;10.20;100.00
9249;BME280;4660;41.768;26.198;2023-04-27T04:43:26;100605.84;;;10.31;100.00
9249;BME280;4660;41.768;26.198;2023-04-27T04:48:35;100574.97;;;10.16;100.00
9249;BME280;4660;41.768;26.198;2023-04-27T04:54:43;100622.00;;;10.31;100.00
9249;BME280;4660;41.768;26.198;2023-04-27T04:57:17;100626.38;;;10.32;100.00
9249;BME280;4660;41.768;26.198;2023-04-27T04:59:43;100618.28;;;10.42;100.00
9249;BME280;4660;41.768;26.198;2023-04-27T05:02:09;100606.13;;;10.28;100.00
9249;BME280;4660;41.768;26.198;2023-04-27T05:04:35;100626.38;;;10.52;100.00
9249;BME280;4660;41.768;26.198;2023-04-27T05:07:00;100628.22;;;10.51;100.00
9249;BME280;4660;41.768;26.198;2023-04-27T05:09:26;100617.13;;;10.64;100.00
9249;BME280;4660;41.768;26.198;2023-04-27T05:11:52;100634.38;;;10.71;100.00
9249;BME280;4660;41.768;26.198;2023-04-27T05:14:17;100634.00;;;10.66;100.00
9249;BME280;4660;41.768;26.198;2023-04-27T05:16:43;100608.38;;;10.42;100.00
9249;BME280;4660;41.768;26.198;2023-04-27T05:19:10;100556.00;;;9.98;100.00
9249;BME280;4660;41.768;26.198;2023-04-27T05:21:43;100502.16;;;9.80;100.00
9249;BME280;4660;41.768;26.198;2023-04-27T05:24:11;100495.50;;;9.75;100.00
9249;BME280;4660;41.768;26.198;2023-04-27T05:26:37;100552.75;;;10.04;100.00
9249;BME280;4660;41.768;26.198;2023-04-27T05:29:06;100554.59;;;10.04;100.00
9249;BME280;4660;41.768;26.198;2023-04-27T05:31:54;100530.53;;;10.12;100.00
9249;BME280;4660;41.768;26.198;2023-04-27T05:34:20;100565.06;;;10.16;100.00
9249;BME280;4660;41.768;26.198;2023-04-27T05:36:46;100537.06;;;10.09;100.00
9249;BME280;4660;41.768;26.198;2023-04-27T05:39:13;100505.81;;;9.89;100.00
9249;BME280;4660;41.768;26.198;2023-04-27T05:41:39;100648.25;;;10.86;100.00
9249;BME280;4660;41.768;26.198;2023-04-27T05:44:05;100533.25;;;10.22;100.00
9249;BME280;4660;41.768;26.198;2023-04-27T05:46:32;100500.56;;;10.16;100.00
9249;BME280;4660;41.768;26.198;2023-04-27T05:48:58;100573.41;;;10.42;100.00
9249;BME280;4660;41.768;26.198;2023-04-27T05:51:24;100561.13;;;10.40;100.00
9249;BME280;4660;41.768;26.198;2023-04-27T05:53:49;100547.97;;;10.37;100.00
9249;BME280;4660;41.768;26.198;2023-04-27T05:56:15;100605.72;;;10.99;100.00
9249;BME280;4660;41.768;26.198;2023-04-27T05:58:41;100565.59;;;10.68;100.00
9249;BME280;4660;41.768;26.198;2023-04-27T06:01:07;100615.91;;;11.05;100.00
9249;BME280;4660;41.768;26.198;2023-04-27T06:03:33;100578.19;;;10.68;100.00
9249;BME280;4660;41.768;26.198;2023-04-27T06:06:00;100659.19;;;11.31;100.00
9249;BME280;4660;41.768;26.198;2023-04-27T06:08:26;100678.03;;;11.21;100.00
9249;BME280;4660;41.768;26.198;2023-04-27T06:10:53;100585.28;;;10.59;100.00
9249;BME280;4660;41.768;26.198;2023-04-27T06:13:19;100626.00;;;10.84;100.00
9249;BME280;4660;41.768;26.198;2023-04-27T06:15:45;100530.28;;;10.25;100.00
9249;BME280;4660;41.768;26.198;2023-04-27T06:18:12;100583.00;;;10.64;100.00
9249;BME280;4660;41.768;26.198;2023-04-27T06:20:38;100535.06;;;10.40;100.00
9249;BME280;4660;41.768;26.198;2023-04-27T06:23:04;100531.56;;;10.30;100.00
9249;BME280;4660;41.768;26.198;2023-04-27T06:25:32;100564.53;;;10.89;100.00
9249;BME280;4660;41.768;26.198;2023-04-27T06:27:57;100605.22;;;11.13;100.00
9249;BME280;4660;41.768;26.198;2023-04-27T06:30:24;100641.34;;;11.30;100.00
9249;BME280;4660;41.768;26.198;2023-04-27T06:32:50;100579.16;;;10.86;100.00
9249;BME280;4660;41.768;26.198;2023-04-27T06:35:17;100631.78;;;11.08;100.00
9249;BME280;4660;41.768;26.198;2023-04-27T06:37:46;100575.06;;;10.63;100.00
9249;BME280;4660;41.768;26.198;2023-04-27T06:40:11;100689.69;;;11.22;100.00
9249;BME280;4660;41.768;26.198;2023-04-27T06:42:37;100673.13;;;11.07;100.00
9249;BME280;4660;41.768;26.198;2023-04-27T06:45:03;100673.66;;;11.20;100.00
9249;BME280;4660;41.768;26.198;2023-04-27T06:47:30;100663.34;;;11.16;100.00
9249;BME280;4660;41.768;26.198;2023-04-27T06:50:02;100677.06;;;11.22;100.00
9249;BME280;4660;41.768;26.198;2023-04-27T06:52:37;100689.75;;;11.40;100.00
9249;BME280;4660;41.768;26.198;2023-04-27T06:55:07;100562.50;;;10.54;100.00
9249;BME280;4660;41.768;26.198;2023-04-27T06:57:33;100679.88;;;11.30;100.00
9249;BME280;4660;41.768;26.198;2023-04-27T06:59:59;100624.66;;;11.07;100.00
9249;BME280;4660;41.768;26.198;2023-04-27T07:02:25;100696.69;;;11.42;100.00
9249;BME280;4660;41.768;26.198;2023-04-27T07:04:51;100698.53;;;11.42;100.00
9249;BME280;4660;41.768;26.198;2023-04-27T07:07:21;100659.75;;;11.25;100.00
9249;BME280;4660;41.768;26.198;2023-04-27T07:09:46;100690.81;;;11.56;100.00
9249;BME280;4660;41.768;26.198;2023-04-27T07:12:15;100671.84;;;11.58;100.00
9249;BME280;4660;41.768;26.198;2023-04-27T07:14:48;100699.28;;;11.81;100.00
9249;BME280;4660;41.768;26.198;2023-04-27T07:17:15;100702.59;;;11.93;100.00
9249;BME280;4660;41.768;26.198;2023-04-27T07:19:43;100662.19;;;12.10;100.00
9249;BME280;4660;41.768;26.198;2023-04-27T07:22:31;100687.69;;;12.70;100.00
9249;BME280;4660;41.768;26.198;2023-04-27T07:24:59;100660.41;;;12.73;100.00
9249;BME280;4660;41.768;26.198;2023-04-27T07:27:46;100683.59;;;13.01;100.00
9249;BME280;4660;41.768;26.198;2023-04-27T07:30:12;100699.13;;;13.07;100.00
9249;BME280;4660;41.768;26.198;2023-04-27T07:32:42;100667.00;;;12.78;100.00
9249;BME280;4660;41.768;26.198;2023-04-27T07:35:08;100673.81;;;12.82;100.00
9249;BME280;4660;41.768;26.198;2023-04-27T07:37:35;100704.81;;;12.78;100.00
9249;BME280;4660;41.768;26.198;2023-04-27T07:40:03;100712.84;;;12.70;100.00
9249;BME280;4660;41.768;26.198;2023-04-27T07:42:49;100694.59;;;12.46;100.00
9249;BME280;4660;41.768;26.198;2023-04-27T07:45:15;100696.03;;;12.40;100.00
9249;BME280;4660;41.768;26.198;2023-04-27T07:47:44;100719.31;;;12.77;100.00
9249;BME280;4660;41.768;26.198;2023-04-27T07:50:12;100713.13;;;13.03;100.00
9249;BME280;4660;41.768;26.198;2023-04-27T07:52:42;100724.88;;;13.37;100.00
9249;BME280;4660;41.768;26.198;2023-04-27T07:55:07;100710.63;;;13.53;100.00
9249;BME280;4660;41.768;26.198;2023-04-27T07:57:35;100728.78;;;13.69;100.00
9249;BME280;4660;41.768;26.198;2023-04-27T08:00:01;100721.22;;;13.46;100.00
9249;BME280;4660;41.768;26.198;2023-04-27T08:02:36;100724.25;;;13.77;100.00
9249;BME280;4660;41.768;26.198;2023-04-27T08:05:03;100721.63;;;13.60;100.00
9249;BME280;4660;41.768;26.198;2023-04-27T08:07:29;100723.13;;;13.54;100.00
9249;BME280;4660;41.768;26.198;2023-04-27T08:09:56;100726.16;;;13.51;100.00
9249;BME280;4660;41.768;26.198;2023-04-27T08:12:22;100727.47;;;13.47;100.00
9249;BME280;4660;41.768;26.198;2023-04-27T08:14:50;100708.94;;;13.52;100.00
9249;BME280;4660;41.768;26.198;2023-04-27T08:17:19;100679.13;;;13.18;100.00
9249;BME280;4660;41.768;26.198;2023-04-27T08:19:51;100729.13;;;13.40;100.00
9249;BME280;4660;41.768;26.198;2023-04-27T08:22:29;100722.91;;;13.47;100.00
9249;BME280;4660;41.768;26.198;2023-04-27T08:24:55;100724.09;;;13.45;100.00
9249;BME280;4660;41.768;26.198;2023-04-27T08:27:22;100734.56;;;13.48;100.00
9249;BME280;4660;41.768;26.198;2023-04-27T08:29:49;100738.91;;;13.41;100.00
9249;BME280;4660;41.768;26.198;2023-04-27T08:32:15;100740.81;;;13.48;100.00
9249;BME280;4660;41.768;26.198;2023-04-27T08:34:41;100683.00;;;13.41;100.00
9249;BME280;4660;41.768;26.198;2023-04-27T08:37:09;100707.91;;;13.53;100.00
9249;BME280;4660;41.768;26.198;2023-04-27T08:39:35;100744.72;;;13.80;100.00
9249;BME280;4660;41.768;26.198;2023-04-27T08:42:09;100744.59;;;13.90;100.00
9249;BME280;4660;41.768;26.198;2023-04-27T08:44:40;100733.16;;;13.70;100.00
9249;BME280;4660;41.768;26.198;2023-04-27T08:47:06;100744.94;;;13.87;100.00
9249;BME280;4660;41.768;26.198;2023-04-27T08:49:34;100716.63;;;13.73;100.00
9249;BME280;4660;41.768;26.198;2023-04-27T08:52:09;100732.69;;;14.09;100.00
9249;BME280;4660;41.768;26.198;2023-04-27T08:55:00;100707.25;;;13.93;100.00
9249;BME280;4660;41.768;26.198;2023-04-27T08:57:35;100725.41;;;14.09;100.00
9249;BME280;4660;41.768;26.198;2023-04-27T09:00:00;100715.16;;;14.29;100.00
9249;BME280;4660;41.768;26.198;2023-04-27T09:02:46;100667.28;;;14.38;100.00
9249;BME280;4660;41.768;26.198;2023-04-27T09:05:20;100659.00;;;14.31;100.00
9249;BME280;4660;41.768;26.198;2023-04-27T09:08:00;100632.94;;;14.22;100.00
9249;BME280;4660;41.768;26.198;2023-04-27T09:10:27;100666.59;;;14.27;100.00
9249;BME280;4660;41.768;26.198;2023-04-27T09:13:02;100628.47;;;13.88;100.00
9249;BME280;4660;41.768;26.198;2023-04-27T09:15:27;100673.66;;;14.04;100.00
9249;BME280;4660;41.768;26.198;2023-04-27T09:17:55;100725.81;;;14.39;100.00
9249;BME280;4660;41.768;26.198;2023-04-27T09:20:22;100733.50;;;14.51;100.00
9249;BME280;4660;41.768;26.198;2023-04-27T09:22:50;100724.31;;;14.36;100.00
9249;BME280;4660;41.768;26.198;2023-04-27T09:25:29;100717.88;;;14.45;100.00
9249;BME280;4660;41.768;26.198;2023-04-27T09:27:59;100713.88;;;14.66;100.00
9249;BME280;4660;41.768;26.198;2023-04-27T09:30:26;100719.47;;;14.72;100.00
9249;BME280;4660;41.768;26.198;2023-04-27T09:32:54;100679.34;;;14.51;100.00
9249;BME280;4660;41.768;26.198;2023-04-27T09:35:24;100708.66;;;14.89;100.00
9249;BME280;4660;41.768;26.198;2023-04-27T09:37:55;100695.59;;;14.84;100.00
9249;BME280;4660;41.768;26.198;2023-04-27T09:40:30;100716.41;;;15.00;100.00
9249;BME280;4660;41.768;26.198;2023-04-27T09:42:58;100687.16;;;14.95;100.00
9249;BME280;4660;41.768;26.198;2023-04-27T09:45:25;100664.78;;;14.85;100.00
9249;BME280;4660;41.768;26.198;2023-04-27T09:47:52;100702.56;;;14.95;100.00
9249;BME280;4660;41.768;26.198;2023-04-27T09:50:18;100702.88;;;15.16;100.00
9249;BME280;4660;41.768;26.198;2023-04-27T09:52:46;100685.25;;;15.12;100.00
9249;BME280;4660;41.768;26.198;2023-04-27T09:55:16;100704.19;;;15.28;100.00
9249;BME280;4660;41.768;26.198;2023-04-27T10:04:20;100698.03;;;15.59;100.00
9249;BME280;4660;41.768;26.198;2023-04-27T10:06:58;100689.75;;;15.52;100.00
9249;BME280;4660;41.768;26.198;2023-04-27T10:09:26;100707.53;;;15.63;100.00
9249;BME280;4660;41.768;26.198;2023-04-27T10:11:54;100695.66;;;15.64;100.00
9249;BME280;4660;41.768;26.198;2023-04-27T10:14:23;100695.72;;;15.39;100.00
9249;BME280;4660;41.768;26.198;2023-04-27T10:16:53;100680.66;;;15.37;100.00
9249;BME280;4660;41.768;26.198;2023-04-27T10:19:22;100635.31;;;14.98;100.00
9249;BME280;4660;41.768;26.198;2023-04-27T10:22:02;100687.44;;;15.25;100.00
9249;BME280;4660;41.768;26.198;2023-04-27T10:24:36;100695.06;;;15.13;100.00
9249;BME280;4660;41.768;26.198;2023-04-27T10:27:08;100708.97;;;15.10;100.00
9249;BME280;4660;41.768;26.198;2023-04-27T10:32:25;100640.09;;;14.80;100.00
9249;BME280;4660;41.768;26.198;2023-04-27T10:35:02;100689.47;;;15.23;100.00
9249;BME280;4660;41.768;26.198;2023-04-27T10:38:38;100700.22;;;15.63;100.00
9249;BME280;4660;41.768;26.198;2023-04-27T10:41:13;100703.28;;;15.60;98.01
9249;BME280;4660;41.768;26.198;2023-04-27T10:43:51;100625.44;;;15.30;99.58
9249;BME280;4660;41.768;26.198;2023-04-27T10:46:51;100613.22;;;15.26;100.00
9249;BME280;4660;41.768;26.198;2023-04-27T10:49:34;100687.34;;;15.74;100.00
9249;BME280;4660;41.768;26.198;2023-04-27T10:52:05;100696.53;;;15.64;100.00
9249;BME280;4660;41.768;26.198;2023-04-27T10:54:57;100571.91;;;15.24;100.00
9249;BME280;4660;41.768;26.198;2023-04-27T10:57:51;100625.22;;;15.39;100.00
9249;BME280;4660;41.768;26.198;2023-04-27T11:00:32;100697.31;;;15.81;99.78
9249;BME280;4660;41.768;26.198;2023-04-27T11:03:29;100600.06;;;15.14;100.00
9249;BME280;4660;41.768;26.198;2023-04-27T11:06:31;100704.03;;;15.93;100.00
9249;BME280;4660;41.768;26.198;2023-04-27T11:42:25;100719.97;;;16.28;94.15
9249;BME280;4660;41.768;26.198;2023-04-27T12:04:57;100630.97;;;15.84;93.57
9249;BME280;4660;41.768;26.198;2023-04-27T12:10:36;100642.84;;;15.44;95.58
9249;BME280;4660;41.768;26.198;2023-04-27T12:25:54;100604.22;;;15.33;94.24
9249;BME280;4660;41.768;26.198;2023-04-27T12:28:36;100724.81;;;16.09;95.02
9249;BME280;4660;41.768;26.198;2023-04-27T12:31:06;100662.13;;;15.65;95.82
9249;BME280;4660;41.768;26.198;2023-04-27T12:36:10;100675.41;;;15.83;94.75
9249;BME280;4660;41.768;26.198;2023-04-27T12:41:15;100572.34;;;15.44;96.39
9249;BME280;4660;41.768;26.198;2023-04-27T12:55:51;100602.66;;;15.47;94.56
9249;BME280;4660;41.768;26.198;2023-04-27T12:58:22;100721.97;;;16.34;97.34
9249;BME280;4660;41.768;26.198;2023-04-27T13:24:51;100657.19;;;16.31;89.30
9249;BME280;4660;41.768;26.198;2023-04-27T13:27:41;100705.13;;;16.69;89.47
9249;BME280;4660;41.768;26.198;2023-04-27T13:36:17;100665.06;;;16.63;89.14
9249;BME280;4660;41.768;26.198;2023-04-27T13:46:58;100575.56;;;16.09;92.91
9249;BME280;4660;41.768;26.198;2023-04-27T13:50:54;100695.06;;;16.93;93.55
9249;BME280;4660;41.768;26.198;2023-04-27T14:02:12;100723.66;;;16.35;95.14
9249;BME280;4660;41.768;26.198;2023-04-27T14:05:25;100632.38;;;15.80;96.23
9249;BME280;4660;41.768;26.198;2023-04-27T14:13:22;100595.66;;;15.22;93.08
9249;BME280;4660;41.768;26.198;2023-04-27T14:16:11;100681.94;;;15.57;95.25
9249;BME280;4660;41.768;26.198;2023-04-27T14:19:07;100584.19;;;14.95;95.31
9249;BME280;4660;41.768;26.198;2023-04-27T14:21:57;100713.63;;;15.49;94.29
9249;BME280;4660;41.768;26.198;2023-04-27T14:24:36;100693.53;;;15.27;92.55
9249;BME280;4660;41.768;26.198;2023-04-27T14:27:27;100646.34;;;14.97;93.76
9249;BME280;4660;41.768;26.198;2023-04-27T14:29:56;100641.25;;;14.77;94.61
9249;BME280;4660;41.768;26.198;2023-04-27T14:40:35;100674.41;;;15.12;99.30
9249;BME280;4660;41.768;26.198;2023-04-27T14:47:09;100712.59;;;15.50;99.03
9249;BME280;4660;41.768;26.198;2023-04-27T14:52:38;100654.28;;;15.14;99.33
9249;BME280;4660;41.768;26.198;2023-04-27T14:55:06;100713.97;;;15.54;100.00
9249;BME280;4660;41.768;26.198;2023-04-27T14:57:35;100707.56;;;15.47;100.00
9249;BME280;4660;41.768;26.198;2023-04-27T15:00:16;100705.16;;;15.68;99.90
9249;BME280;4660;41.768;26.198;2023-04-27T15:03:18;100594.34;;;14.85;100.00
9249;BME280;4660;41.768;26.198;2023-04-27T15:05:49;100697.22;;;15.34;100.00
9249;BME280;4660;41.768;26.198;2023-04-27T15:08:17;100752.97;;;15.53;100.00
9249;BME280;4660;41.768;26.198;2023-04-27T15:10:43;100741.59;;;15.49;100.00
9249;BME280;4660;41.768;26.198;2023-04-27T15:13:10;100647.66;;;15.09;100.00
9249;BME280;4660;41.768;26.198;2023-04-27T15:15:39;100622.78;;;14.97;100.00
9249;BME280;4660;41.768;26.198;2023-04-27T15:18:07;100740.75;;;15.65;100.00
9249;BME280;4660;41.768;26.198;2023-04-27T15:20:36;100735.66;;;15.54;100.00
9249;BME280;4660;41.768;26.198;2023-04-27T15:23:02;100729.06;;;15.48;100.00
9249;BME280;4660;41.768;26.198;2023-04-27T15:25:28;100743.75;;;15.86;100.00
9249;BME280;4660;41.768;26.198;2023-04-27T15:27:53;100757.13;;;15.88;100.00
9249;BME280;4660;41.768;26.198;2023-04-27T15:30:19;100750.41;;;15.67;100.00
9249;BME280;4660;41.768;26.198;2023-04-27T15:32:44;100740.75;;;15.65;100.00
9249;BME280;4660;41.768;26.198;2023-04-27T15:35:10;100737.69;;;15.68;100.00
9249;BME280;4660;41.768;26.198;2023-04-27T15:37:36;100753.34;;;15.97;99.65
9249;BME280;4660;41.768;26.198;2023-04-27T15:40:03;100753.16;;;16.07;98.23
9249;BME280;4660;41.768;26.198;2023-04-27T15:42:28;100765.91;;;15.98;98.41
9249;BME280;4660;41.768;26.198;2023-04-27T15:44:54;100743.28;;;15.75;99.46
9249;BME280;4660;41.768;26.198;2023-04-27T15:47:19;100718.72;;;15.52;100.00
9249;BME280;4660;41.768;26.198;2023-04-27T15:49:45;100748.91;;;15.65;99.50
9249;BME280;4660;41.768;26.198;2023-04-27T15:52:11;100751.75;;;15.55;100.00